Time;durP1;ratioP1;P1;durP2;ratioP2;P2;SDS_P1;SDS_P2;PMS_P1;PMS_P2;Temp;Humidity;BMP_temperature;BMP_pressure;BME280_temperature;BME280_humidity;BME280_pressure;Samples;Min_cycle;Max_cycle;Signal;HPM_P1;HPM_P2
2021/06/27 00:01:04;;;;;;;3.27;0.90;;;13.30;99.90;;;;;;4781450;28;20208;-81
2021/06/27 00:03:27;;;;;;;2.27;0.70;;;;;;;;;;4783589;28;20200;-77
2021/06/27 00:05:49;;;;;;;3.33;0.93;;;;;;;;;;4783840;28;20616;-77
2021/06/27 00:08:15;;;;;;;5.17;1.47;;;;;;;;;;4800106;28;20618;-75
2021/06/27 00:10:40;;;;;;;2.27;0.80;;;13.20;99.90;;;;;;4801355;28;20196;-75
2021/06/27 00:13:03;;;;;;;2.03;0.60;;;13.10;99.90;;;;;;4800262;28;20426;-77
2021/06/27 00:15:30;;;;;;;2.30;0.83;;;13.10;99.90;;;;;;4800505;28;20255;-75
2021/06/27 00:17:55;;;;;;;2.73;0.80;;;13.10;99.90;;;;;;4800102;28;20688;-75
2021/06/27 00:20:22;;;;;;;4.87;1.47;;;13.10;99.90;;;;;;4801221;28;20673;-75
2021/06/27 00:22:44;;;;;;;1.83;0.67;;;13.30;99.90;;;;;;4801522;28;20188;-75
2021/06/27 00:25:10;;;;;;;6.03;1.53;;;13.10;99.90;;;;;;4801470;28;20250;-75
2021/06/27 00:27:33;;;;;;;2.30;0.80;;;;;;;;;;4801307;28;20667;-75
2021/06/27 00:29:56;;;;;;;2.53;0.77;;;12.20;99.90;;;;;;4799848;28;20616;-77
2021/06/27 00:32:18;;;;;;;5.23;1.53;;;;;;;;;;4800686;28;20625;-76
2021/06/27 00:34:42;;;;;;;2.50;0.80;;;12.90;99.90;;;;;;4800611;28;20246;-76
2021/06/27 00:37:05;;;;;;;2.10;0.70;;;12.90;99.90;;;;;;4801071;28;20592;-75
2021/06/27 00:39:27;;;;;;;2.10;0.67;;;12.90;99.90;;;;;;4801237;28;20235;-76
2021/06/27 00:41:50;;;;;;;2.23;0.80;;;;;;;;;;4801179;28;20220;-75
2021/06/27 00:44:13;;;;;;;4.87;1.50;;;;;;;;;;4800883;28;20192;-77
2021/06/27 00:46:35;;;;;;;2.03;0.73;;;12.00;99.90;;;;;;4800969;28;20184;-82
2021/06/27 00:48:58;;;;;;;2.70;0.90;;;;;;;;;;4799865;28;20246;-75
2021/06/27 00:51:22;;;;;;;4.17;1.40;;;12.80;99.90;;;;;;4799521;28;20250;-75
2021/06/27 00:53:45;;;;;;;1.50;0.63;;;12.70;99.90;;;;;;4800565;28;20184;-76
2021/06/27 00:56:08;;;;;;;4.83;1.43;;;;;;;;;;4800660;28;20192;-75
2021/06/27 00:58:32;;;;;;;2.80;0.93;;;12.30;99.90;;;;;;4801358;28;20538;-77
2021/06/27 01:00:55;;;;;;;2.07;0.77;;;;;;;;;;4798943;28;20220;-76
2021/06/27 01:03:18;;;;;;;3.80;1.40;;;;;;;;;;4800043;28;20282;-77
2021/06/27 01:05:41;;;;;;;2.60;1.00;;;12.70;99.90;;;;;;4800737;28;20288;-75
2021/06/27 01:08:06;;;;;;;1.90;0.77;;;12.50;99.90;;;;;;4799989;28;20725;-76
2021/06/27 01:10:29;;;;;;;1.63;0.60;;;;;;;;;;4799955;28;20738;-78
2021/06/27 01:12:52;;;;;;;2.13;0.80;;;;;;;;;;4800403;28;20191;-75
2021/06/27 01:15:16;;;;;;;4.20;1.40;;;12.40;99.90;;;;;;4800487;28;20188;-77
2021/06/27 01:17:39;;;;;;;1.47;0.60;;;12.30;99.90;;;;;;4800800;28;20192;-76
2021/06/27 01:20:02;;;;;;;1.97;0.80;;;;;;;;;;4799937;28;20267;-75
2021/06/27 01:22:26;;;;;;;1.83;0.77;;;12.30;99.90;;;;;;4798359;28;20200;-76
2021/06/27 01:24:50;;;;;;;1.97;0.87;;;;;;;;;;4800813;28;20551;-76
2021/06/27 01:27:13;;;;;;;4.73;1.57;;;;;;;;;;4800482;28;20564;-76
2021/06/27 01:29:35;;;;;;;1.63;0.70;;;;;;;;;;4798812;28;20255;-77
2021/06/27 01:31:58;;;;;;;1.70;0.70;;;12.20;99.90;;;;;;4800700;28;20192;-76
2021/06/27 01:34:22;;;;;;;3.33;1.27;;;12.20;99.90;;;;;;4799850;28;20259;-76
2021/06/27 01:36:44;;;;;;;0.63;0.40;;;12.30;99.90;;;;;;4800180;28;20200;-87
2021/06/27 01:39:09;;;;;;;4.00;1.23;;;12.20;99.90;;;;;;4799524;28;20215;-89
2021/06/27 01:41:32;;;;;;;2.37;0.90;;;;;;;;;;4799785;28;20290;-83
2021/06/27 01:43:55;;;;;;;2.30;0.93;;;;;;;;;;4799773;28;20192;-77
2021/06/27 01:46:20;;;;;;;2.80;0.90;;;12.20;99.90;;;;;;4804906;28;20559;-88
2021/06/27 01:48:42;;;;;;;1.37;0.50;;;;;;;;;;4804349;28;20222;-85
2021/06/27 01:51:07;;;;;;;2.83;0.87;;;12.30;99.90;;;;;;4800679;28;20196;-90
2021/06/27 01:53:32;;;;;;;2.23;0.70;;;12.30;99.90;;;;;;4801360;28;20239;-90
2021/06/27 01:56:06;;;;;;;1.77;0.70;;;12.30;99.90;;;;;;4800420;28;20192;-90
2021/06/27 01:58:29;;;;;;;1.53;0.53;;;12.30;99.90;;;;;;4801017;28;20696;-91
2021/06/27 02:00:52;;;;;;;3.83;1.37;;;;;;;;;;4799941;28;20796;-88
2021/06/27 02:03:18;;;;;;;2.80;1.00;;;12.20;99.90;;;;;;4783081;28;20228;-89
2021/06/27 02:05:41;;;;;;;1.10;0.47;;;;;;;;;;4783317;29;20703;-89
2021/06/27 02:08:04;;;;;;;0.70;0.30;;;;;;;;;;4781834;29;20200;-87
2021/06/27 02:10:29;;;;;;;1.27;0.47;;;12.20;99.90;;;;;;4783542;28;20201;-88
2021/06/27 02:12:55;;;;;;;0.83;0.40;;;12.20;99.90;;;;;;4802112;28;20235;-89
2021/06/27 02:15:19;;;;;;;3.20;1.13;;;12.20;99.90;;;;;;4816324;28;20262;-84
2021/06/27 02:17:50;;;;;;;1.17;0.50;;;12.10;99.90;;;;;;4801710;28;20280;-89
2021/06/27 02:20:14;;;;;;;3.30;1.13;;;12.00;99.90;;;;;;4800395;28;20566;-85
2021/06/27 02:22:36;;;;;;;2.03;0.80;;;;;;;;;;4792139;28;20263;-88
2021/06/27 02:25:00;;;;;;;1.70;0.70;;;12.00;99.90;;;;;;4801025;28;20188;-83
2021/06/27 02:27:23;;;;;;;0.70;0.50;;;;;;;;;;4801533;28;20192;-79
2021/06/27 02:29:47;;;;;;;0.70;0.40;;;12.10;99.90;;;;;;4801459;28;20429;-91
2021/06/27 02:32:10;;;;;;;4.20;1.43;;;12.20;99.90;;;;;;4801281;28;20188;-89
2021/06/27 02:34:32;;;;;;;1.40;0.50;;;12.10;99.90;;;;;;4803675;28;20184;-81
2021/06/27 02:36:55;;;;;;;0.90;0.40;;;11.90;99.90;;;;;;4805102;28;20242;-91
2021/06/27 02:39:17;;;;;;;1.87;0.70;;;;;;;;;;4804687;28;20670;-85
2021/06/27 02:41:40;;;;;;;1.10;0.40;;;;;;;;;;4819550;28;20717;-90
2021/06/27 02:44:03;;;;;;;0.87;0.40;;;;;;;;;;4804834;28;20192;-81
2021/06/27 02:46:27;;;;;;;0.80;0.40;;;12.20;99.90;;;;;;4805148;28;20188;-90
2021/06/27 02:48:49;;;;;;;2.50;0.87;;;12.20;99.90;;;;;;4804599;28;20235;-90
2021/06/27 02:51:12;;;;;;;3.53;1.17;;;;;;;;;;4804817;28;20248;-89
2021/06/27 02:53:35;;;;;;;1.27;0.50;;;12.20;99.90;;;;;;4804596;28;20184;-89
2021/06/27 02:56:10;;;;;;;2.17;0.87;;;;;;;;;;4803422;28;20196;-78
2021/06/27 02:58:32;;;;;;;1.83;0.80;;;12.20;99.90;;;;;;4803262;28;20192;-81
2021/06/27 03:00:54;;;;;;;2.43;0.73;;;12.50;99.90;;;;;;4801206;28;20677;-80
2021/06/27 03:03:18;;;;;;;1.70;0.70;;;11.80;99.90;;;;;;4786482;28;20278;-80
2021/06/27 03:05:41;;;;;;;0.90;0.50;;;;;;;;;;4785938;29;20188;-87
2021/06/27 03:08:04;;;;;;;1.27;0.50;;;12.40;99.90;;;;;;4785452;29;20604;-84
2021/06/27 03:10:27;;;;;;;1.80;0.57;;;;;;;;;;4785351;29;20709;-90
2021/06/27 03:12:51;;;;;;;1.67;0.70;;;12.70;99.90;;;;;;4784515;29;20188;-86
2021/06/27 03:15:16;;;;;;;3.80;1.37;;;12.40;99.90;;;;;;4784537;29;20300;-90
2021/06/27 03:17:39;;;;;;;1.10;0.40;;;;;;;;;;4785875;28;20854;-88
2021/06/27 03:20:05;;;;;;;0.70;0.37;;;12.50;99.90;;;;;;4784339;29;20196;-77
2021/06/27 03:22:28;;;;;;;1.80;0.80;;;;;;;;;;4784306;29;20263;-90
2021/06/27 03:24:50;;;;;;;1.97;0.80;;;12.40;99.90;;;;;;4785405;28;20325;-89
2021/06/27 03:27:13;;;;;;;3.23;1.20;;;12.40;99.90;;;;;;4784236;29;20189;-88
2021/06/27 03:29:35;;;;;;;1.13;0.57;;;12.60;99.90;;;;;;4784909;28;20658;-89
2021/06/27 03:31:58;;;;;;;1.67;0.70;;;;;;;;;;4782377;29;20232;-84
2021/06/27 03:34:21;;;;;;;4.07;1.50;;;12.90;99.90;;;;;;4783199;28;20193;-78
2021/06/27 03:36:45;;;;;;;1.67;0.70;;;13.20;99.90;;;;;;4783647;29;20209;-77
2021/06/27 03:39:09;;;;;;;4.73;1.67;;;;;;;;;;4783977;28;20326;-88
2021/06/27 03:41:37;;;;;;;1.50;0.63;;;;;;;;;;4784913;28;20816;-90
2021/06/27 03:43:59;;;;;;;1.23;0.53;;;;;;;;;;4785017;28;20181;-89
2021/06/27 03:46:22;;;;;;;1.17;0.80;;;;;;;;;;4784093;28;20925;-88
2021/06/27 03:48:45;;;;;;;1.40;0.60;;;13.50;99.90;;;;;;4785004;28;20193;-90
2021/06/27 03:51:07;;;;;;;3.77;1.30;;;12.70;99.90;;;;;;4784429;28;20200;-90
2021/06/27 03:53:31;;;;;;;1.87;0.77;;;13.00;99.90;;;;;;4785231;28;20213;-89
2021/06/27 03:55:57;;;;;;;1.07;0.50;;;;;;;;;;4784880;28;20244;-88
2021/06/27 03:58:20;;;;;;;2.57;1.07;;;;;;;;;;4784823;28;20566;-86
2021/06/27 04:00:42;;;;;;;16.90;5.70;;;13.00;99.90;;;;;;4781741;29;20934;-85
2021/06/27 04:03:05;;;;;;;2.10;0.90;;;13.80;99.90;;;;;;4771629;28;20275;-84
2021/06/27 04:05:28;;;;;;;2.20;0.90;;;;;;;;;;4783472;29;20240;-89
2021/06/27 04:07:50;;;;;;;2.40;1.00;;;;;;;;;;4782577;28;20205;-77
2021/06/27 04:10:14;;;;;;;3.10;1.07;;;13.30;99.90;;;;;;4781774;28;20725;-74
2021/06/27 04:12:57;;;;;;;2.53;0.90;;;13.70;99.90;;;;;;4781764;29;20259;-77
2021/06/27 04:15:39;;;;;;;2.00;0.87;;;13.70;99.90;;;;;;4782717;29;20566;-77
2021/06/27 04:18:22;;;;;;;3.07;1.23;;;14.20;99.90;;;;;;4782603;29;20195;-78
2021/06/27 04:21:06;;;;;;;2.47;0.87;;;13.90;99.90;;;;;;4782137;29;20211;-77
2021/06/27 04:23:47;;;;;;;1.40;0.57;;;;;;;;;;4783048;29;20177;-77
2021/06/27 04:26:31;;;;;;;2.17;0.80;;;14.20;99.90;;;;;;4782658;29;20177;-79
2021/06/27 04:29:16;;;;;;;3.87;1.40;;;;;;;;;;4782367;29;20547;-79
2021/06/27 04:31:58;;;;;;;2.10;0.77;;;;;;;;;;4764074;29;20197;-76
2021/06/27 04:34:21;;;;;;;3.07;1.17;;;13.40;99.90;;;;;;4763399;29;20950;-79
2021/06/27 04:36:44;;;;;;;1.37;0.60;;;;;;;;;;4763834;29;20193;-75
2021/06/27 04:39:08;;;;;;;3.47;1.20;;;;;;;;;;4763649;29;20265;-78
2021/06/27 04:41:32;;;;;;;2.70;0.93;;;14.70;99.90;;;;;;4794698;28;20224;-79
2021/06/27 04:43:54;;;;;;;2.57;1.10;;;;;;;;;;4781620;29;20197;-77
2021/06/27 04:46:18;;;;;;;3.90;1.40;;;14.70;99.90;;;;;;4764417;29;20197;-75
2021/06/27 04:48:41;;;;;;;1.37;0.60;;;;;;;;;;4796815;28;20204;-77
2021/06/27 04:51:05;;;;;;;2.03;0.70;;;15.00;99.90;;;;;;4764297;29;20199;-76
2021/06/27 04:53:28;;;;;;;2.13;0.77;;;;;;;;;;4781941;29;20196;-77
2021/06/27 04:55:51;;;;;;;1.93;0.70;;;;;;;;;;4782233;28;20746;-78
2021/06/27 04:58:14;;;;;;;4.50;1.40;;;14.50;99.90;;;;;;4781970;28;20188;-78
2021/06/27 05:00:37;;;;;;;23.13;7.20;;;15.40;99.90;;;;;;4780110;29;20192;-77
2021/06/27 05:03:01;;;;;;;1.77;0.70;;;;;;;;;;4781195;28;20240;-77
2021/06/27 05:05:24;;;;;;;1.30;0.60;;;;;;;;;;4781925;29;20244;-77
2021/06/27 05:07:46;;;;;;;2.27;0.83;;;;;;;;;;4781906;29;20559;-80
2021/06/27 05:10:10;;;;;;;4.27;1.33;;;15.60;99.90;;;;;;4781671;29;20220;-77
2021/06/27 05:12:33;;;;;;;2.67;0.93;;;16.00;99.90;;;;;;4781755;29;20255;-77
2021/06/27 05:14:56;;;;;;;2.53;1.00;;;16.00;99.90;;;;;;4781801;29;20180;-76
2021/06/27 05:17:20;;;;;;;3.07;1.13;;;;;;;;;;4780156;29;20193;-76
2021/06/27 05:19:43;;;;;;;3.20;1.07;;;16.00;99.90;;;;;;4780682;29;20247;-77
2021/06/27 05:22:05;;;;;;;2.97;0.93;;;;;;;;;;4779330;29;20322;-75
2021/06/27 05:24:28;;;;;;;1.87;0.60;;;16.60;99.90;;;;;;4780518;29;20236;-75
2021/06/27 05:26:51;;;;;;;2.60;1.00;;;;;;;;;;4781685;28;20185;-76
2021/06/27 05:29:13;;;;;;;4.80;1.47;;;;;;;;;;4781427;29;20240;-73
2021/06/27 05:31:37;;;;;;;1.83;0.63;;;16.50;99.90;;;;;;4781611;29;20817;-75
2021/06/27 05:34:00;;;;;;;1.73;0.60;;;16.60;99.90;;;;;;4763780;28;20185;-86
2021/06/27 05:36:22;;;;;;;3.40;1.20;;;16.60;99.90;;;;;;4763664;29;20635;-83
2021/06/27 05:38:45;;;;;;;1.47;0.53;;;16.90;99.90;;;;;;4763448;29;20229;-84
2021/06/27 05:41:08;;;;;;;2.80;0.90;;;;;;;;;;4771518;29;20741;-79
2021/06/27 05:43:31;;;;;;;2.53;0.80;;;17.10;99.90;;;;;;4780473;29;20774;-83
2021/06/27 05:45:53;;;;;;;1.90;0.70;;;;;;;;;;4781767;29;20185;-80
2021/06/27 05:48:17;;;;;;;3.43;1.13;;;17.40;99.90;;;;;;4781553;28;20208;-82
2021/06/27 05:50:40;;;;;;;2.20;0.70;;;;;;;;;;4776939;29;20193;-81
2021/06/27 05:53:03;;;;;;;2.20;0.80;;;;;;;;;;4761884;29;20210;-74
2021/06/27 05:55:25;;;;;;;1.53;0.57;;;17.40;99.90;;;;;;4772843;29;20200;-73
2021/06/27 05:57:48;;;;;;;2.40;0.73;;;17.50;72.90;;;;;;4780786;28;20626;-74
2021/06/27 06:00:11;;;;;;;5.97;1.73;;;17.70;1.00;;;;;;4781053;28;20244;-74
2021/06/27 06:02:33;;;;;;;2.10;0.70;;;18.00;1.00;;;;;;4778705;28;20236;-75
2021/06/27 06:04:57;;;;;;;1.93;0.70;;;18.00;1.00;;;;;;4781926;29;20184;-84
2021/06/27 06:07:20;;;;;;;4.03;1.23;;;18.60;1.00;;;;;;4790040;28;20216;-83
2021/06/27 06:09:43;;;;;;;3.00;0.90;;;;;;;;;;4802588;28;20188;-84
2021/06/27 06:12:06;;;;;;;1.60;0.60;;;18.40;1.00;;;;;;4804602;28;20192;-86
2021/06/27 06:14:29;;;;;;;3.13;0.93;;;19.10;1.00;;;;;;4803144;28;20243;-84
2021/06/27 06:16:51;;;;;;;2.23;0.73;;;18.60;1.00;;;;;;4802501;28;20209;-83
2021/06/27 06:19:17;;;;;;;3.77;1.10;;;;;;;;;;4802143;28;20204;-80
2021/06/27 06:21:41;;;;;;;2.10;0.70;;;19.10;1.00;;;;;;4802574;28;20289;-82
2021/06/27 06:24:04;;;;;;;1.87;0.60;;;;;;;;;;4802541;28;20283;-80
2021/06/27 06:26:27;;;;;;;2.10;0.63;;;;;;;;;;4803705;28;20193;-83
2021/06/27 06:28:49;;;;;;;2.57;0.80;;;19.20;1.00;;;;;;4803673;28;20631;-73
2021/06/27 06:31:12;;;;;;;4.57;1.33;;;20.00;1.00;;;;;;4802791;28;20267;-74
2021/06/27 06:33:35;;;;;;;2.10;0.70;;;;;;;;;;4801498;28;20201;-73
2021/06/27 06:35:57;;;;;;;3.03;0.90;;;20.50;99.90;;;;;;4803176;28;20204;-74
2021/06/27 06:38:21;;;;;;;4.53;1.40;;;19.90;6.90;;;;;;4802932;28;20212;-74
2021/06/27 06:40:44;;;;;;;1.70;0.60;;;;;;;;;;4803208;28;20242;-74
2021/06/27 06:43:07;;;;;;;2.87;0.93;;;20.20;99.90;;;;;;4803322;28;20266;-75
2021/06/27 06:45:29;;;;;;;2.37;0.70;;;;;;;;;;4803465;28;20234;-74
2021/06/27 06:47:52;;;;;;;2.17;0.60;;;21.10;99.90;;;;;;4802811;28;20191;-75
2021/06/27 06:50:14;;;;;;;4.87;1.50;;;20.90;65.30;;;;;;4803074;28;20194;-77
2021/06/27 06:52:37;;;;;;;2.17;0.70;;;;;;;;;;4802714;28;20206;-75
2021/06/27 06:55:01;;;;;;;2.00;0.63;;;20.60;1.00;;;;;;4801782;28;20214;-75
2021/06/27 06:57:24;;;;;;;1.80;0.60;;;;;;;;;;4785254;28;20194;-74
2021/06/27 06:59:46;;;;;;;2.63;0.77;;;21.10;1.00;;;;;;4803178;28;20186;-76
2021/06/27 07:02:09;;;;;;;6.33;1.73;;;;;;;;;;4795496;28;20228;-77
2021/06/27 07:04:32;;;;;;;2.77;0.90;;;21.30;1.00;;;;;;4784219;29;20195;-82
2021/06/27 07:06:55;;;;;;;2.13;0.70;;;;;;;;;;4791660;28;20253;-79
2021/06/27 07:09:18;;;;;;;8.60;2.40;;;21.80;1.00;;;;;;4800764;28;20198;-76
2021/06/27 07:11:42;;;;;;;2.53;0.80;;;21.80;99.90;;;;;;4802856;28;20246;-76
2021/06/27 07:14:04;;;;;;;1.87;0.60;;;21.70;99.90;;;;;;4802547;28;20239;-74
2021/06/27 07:16:27;;;;;;;2.03;0.63;;;22.40;99.90;;;;;;4801651;28;20207;-74
2021/06/27 07:18:50;;;;;;;2.97;0.90;;;;;;;;;;4801947;28;20198;-74
2021/06/27 07:21:13;;;;;;;5.60;1.50;;;;;;;;;;4800752;28;20243;-74
2021/06/27 07:23:35;;;;;;;2.67;0.73;;;;;;;;;;4802552;28;20634;-74
2021/06/27 07:25:58;;;;;;;4.57;1.30;;;;;;;;;;4802447;28;20253;-73
2021/06/27 07:28:22;;;;;;;6.07;1.77;;;25.10;99.90;;;;;;4801927;28;20210;-75
2021/06/27 07:30:44;;;;;;;2.27;0.70;;;25.00;1.00;;;;;;4801940;28;20202;-83
2021/06/27 07:33:08;;;;;;;4.07;1.17;;;24.80;1.00;;;;;;4802222;28;20644;-73
2021/06/27 07:35:31;;;;;;;3.87;1.07;;;24.90;1.00;;;;;;4802343;28;20194;-74
2021/06/27 07:37:54;;;;;;;3.33;1.00;;;24.50;27.80;;;;;;4802241;28;20739;-72
2021/06/27 07:40:17;;;;;;;4.37;1.20;;;24.80;1.00;;;;;;4801806;28;20727;-80
2021/06/27 07:42:40;;;;;;;2.07;0.70;;;;;;;;;;4803167;28;20433;-84
2021/06/27 07:45:04;;;;;;;3.07;0.90;;;24.90;1.00;;;;;;4802117;28;20217;-86
2021/06/27 07:47:27;;;;;;;3.03;0.87;;;25.60;1.00;;;;;;4802032;28;20743;-83
2021/06/27 07:49:49;;;;;;;2.90;0.80;;;24.90;1.00;;;;;;4800694;28;20211;-85
2021/06/27 07:52:12;;;;;;;6.07;1.67;;;25.60;1.00;;;;;;4801188;28;20203;-83
2021/06/27 07:54:34;;;;;;;3.17;1.00;;;25.50;1.00;;;;;;4802246;28;20257;-84
2021/06/27 07:56:57;;;;;;;2.90;0.87;;;;;;;;;;4800946;28;20201;-82
2021/06/27 07:59:20;;;;;;;5.50;1.63;;;;;;;;;;4802050;28;20192;-82
2021/06/27 08:01:44;;;;;;;3.30;1.03;;;25.60;1.00;;;;;;4799507;28;20350;-82
2021/06/27 08:04:06;;;;;;;3.90;1.10;;;25.50;1.00;;;;;;4801484;28;20208;-84
2021/06/27 08:06:29;;;;;;;3.70;1.03;;;25.60;1.00;;;;;;4800006;28;20208;-84
2021/06/27 08:08:52;;;;;;;2.77;0.87;;;;;;;;;;4801009;28;20181;-84
2021/06/27 08:11:14;;;;;;;5.40;1.37;;;;;;;;;;4801508;28;20204;-81
2021/06/27 08:13:37;;;;;;;3.20;0.90;;;;;;;;;;4801735;28;20533;-86
2021/06/27 08:16:00;;;;;;;2.80;0.87;;;25.00;1.00;;;;;;4802141;28;20200;-84
2021/06/27 08:18:24;;;;;;;8.17;2.23;;;25.10;1.00;;;;;;4800981;28;20188;-82
2021/06/27 08:20:46;;;;;;;2.83;0.80;;;;;;;;;;4800891;28;20196;-79
2021/06/27 08:23:11;;;;;;;5.50;1.43;;;24.90;1.00;;;;;;4801488;28;20344;-84
2021/06/27 08:25:34;;;;;;;4.33;1.13;;;25.00;1.00;;;;;;4801618;28;20191;-83
2021/06/27 08:27:57;;;;;;;3.67;0.90;;;24.80;1.00;;;;;;4801931;28;20259;-85
2021/06/27 08:30:22;;;;;;;6.27;1.73;;;25.40;1.00;;;;;;4801378;28;20252;-84
2021/06/27 08:32:46;;;;;;;1.90;0.57;;;25.60;1.00;;;;;;4801899;28;20240;-81
2021/06/27 08:35:12;;;;;;;5.43;1.43;;;25.90;1.00;;;;;;4802297;28;20955;-84
2021/06/27 08:37:34;;;;;;;3.00;0.90;;;;;;;;;;4801165;28;20245;-81
2021/06/27 08:39:57;;;;;;;2.87;0.83;;;;;;;;;;4801066;28;20191;-83
2021/06/27 08:42:20;;;;;;;5.63;1.53;;;26.70;1.00;;;;;;4799122;28;20294;-84
2021/06/27 08:44:44;;;;;;;3.03;0.90;;;26.50;1.00;;;;;;4801603;28;20231;-87
2021/06/27 08:47:07;;;;;;;3.47;0.83;;;27.20;1.00;;;;;;4800793;28;20241;-84
2021/06/27 08:49:30;;;;;;;2.63;0.67;;;26.90;1.00;;;;;;4801236;28;20713;-73
2021/06/27 08:51:56;;;;;;;2.83;0.77;;;27.20;1.00;;;;;;4800902;28;20644;-75
2021/06/27 08:54:19;;;;;;;9.33;2.30;;;;;;;;;;4799941;28;20746;-74
2021/06/27 08:56:42;;;;;;;5.60;1.30;;;;;;;;;;4800446;28;20659;-73
2021/06/27 08:59:04;;;;;;;4.00;1.00;;;27.40;1.00;;;;;;4799958;28;20246;-76
2021/06/27 09:01:27;;;;;;;2.57;0.60;;;;;;;;;;4797752;28;20348;-74
2021/06/27 09:03:51;;;;;;;3.77;0.70;;;28.20;1.00;;;;;;4800523;28;20211;-76
2021/06/27 09:06:24;;;;;;;10.13;1.87;;;27.80;1.00;;;;;;4800488;28;20615;-74
2021/06/27 09:09:09;;;;;;;2.73;0.43;;;28.80;99.90;;;;;;4798854;28;20608;-74
2021/06/27 09:11:31;;;;;;;5.47;1.07;;;;;;;;;;4799324;28;20760;-74
2021/06/27 09:13:54;;;;;;;4.00;0.80;;;;;;;;;;4800546;28;20191;-74
2021/06/27 09:16:23;;;;;;;11.83;1.80;;;30.30;1.00;;;;;;4800135;28;20307;-74
2021/06/27 09:18:45;;;;;;;7.10;1.13;;;;;;;;;;4800673;28;20241;-73
2021/06/27 09:21:08;;;;;;;5.33;0.80;;;;;;;;;;4800303;28;20209;-75
2021/06/27 09:23:36;;;;;;;6.47;1.00;;;31.20;99.90;;;;;;4800635;28;20736;-84
2021/06/27 09:26:00;;;;;;;6.17;0.97;;;31.40;1.00;;;;;;4800229;28;20207;-83
2021/06/27 09:28:23;;;;;;;13.20;2.00;;;;;;;;;;4800331;28;20238;-82
2021/06/27 09:30:47;;;;;;;9.70;1.50;;;30.20;99.90;;;;;;4797839;28;20618;-74
2021/06/27 09:33:11;;;;;;;7.27;1.17;;;30.10;1.00;;;;;;4800252;28;20195;-80
2021/06/27 09:35:57;;;;;;;8.43;1.37;;;31.50;1.00;;;;;;4800009;28;20249;-74
2021/06/27 09:38:31;;;;;;;12.27;1.92;;;32.80;1.00;;;;;;4796789;28;20270;-82
2021/06/27 09:40:56;;;;;;;4.43;0.75;;;34.20;1.00;;;;;;4800271;28;20685;-83
2021/06/27 09:43:20;;;;;;;11.88;1.73;;;35.70;1.00;;;;;;4798979;28;20188;-76
2021/06/27 09:45:47;;;;;;;4.95;0.77;;;37.10;1.00;;;;;;4800459;28;20188;-84
2021/06/27 09:48:10;;;;;;;4.40;0.68;;;38.20;1.00;;;;;;4800051;28;20870;-80
2021/06/27 09:50:33;;;;;;;8.15;1.17;;;;;;;;;;4800063;28;20200;-75
2021/06/27 09:52:55;;;;;;;9.05;1.27;;;;;;;;;;4799868;28;20704;-82
2021/06/27 09:55:18;;;;;;;18.55;2.40;;;;;;;;;;4814254;28;20210;-78
2021/06/27 09:57:42;;;;;;;6.45;0.88;;;42.00;1.00;;;;;;4799899;28;20259;-79
2021/06/27 10:00:31;;;;;;;10.45;1.42;;;42.40;1.00;;;;;;4800022;28;20191;-79
2021/06/27 10:03:07;;;;;;;8.45;1.15;;;43.80;1.00;;;;;;4798636;28;20263;-83
2021/06/27 10:05:29;;;;;;;6.90;0.95;;;42.40;99.90;;;;;;4800360;28;20180;-79
2021/06/27 10:07:52;;;;;;;6.07;0.88;;;41.90;1.00;;;;;;4799028;28;20201;-74
2021/06/27 10:10:19;;;;;;;21.10;2.70;;;42.40;99.90;;;;;;4798835;28;20192;-74
2021/06/27 10:12:42;;;;;;;8.23;1.17;;;43.00;1.00;;;;;;4800271;28;20195;-75
2021/06/27 10:15:08;;;;;;;9.60;1.38;;;43.80;99.90;;;;;;4798635;28;20239;-82
2021/06/27 10:17:31;;;;;;;7.35;1.08;;;44.60;99.90;;;;;;4799936;28;20603;-81
2021/06/27 10:19:55;;;;;;;9.60;1.35;;;45.00;99.90;;;;;;4799913;28;20192;-84
2021/06/27 10:22:20;;;;;;;12.40;1.73;;;44.30;1.00;;;;;;4799887;28;20254;-77
2021/06/27 10:24:43;;;;;;;10.13;1.48;;;45.50;99.90;;;;;;4799829;28;20555;-80
2021/06/27 10:27:07;;;;;;;10.23;1.45;;;45.30;1.00;;;;;;4799519;28;20242;-79
2021/06/27 10:29:30;;;;;;;6.10;0.95;;;44.50;99.90;;;;;;4799780;28;20211;-80
2021/06/27 10:31:55;;;;;;;9.57;1.38;;;43.00;1.00;;;;;;4799873;28;20203;-83
2021/06/27 10:34:19;;;;;;;16.55;2.20;;;41.00;99.90;;;;;;4799495;28;20270;-75
2021/06/27 10:36:44;;;;;;;11.13;1.55;;;41.40;1.00;;;;;;4800113;28;20335;-83
2021/06/27 10:39:10;;;;;;;4.15;0.68;;;42.80;99.90;;;;;;4797884;28;20208;-79
2021/06/27 10:41:50;;;;;;;9.63;1.38;;;45.20;1.00;;;;;;4799652;28;20219;-78
2021/06/27 10:44:12;;;;;;;16.13;2.20;;;45.50;99.90;;;;;;4798618;28;20196;-77
2021/06/27 10:46:40;;;;;;;6.93;1.13;;;47.20;99.90;;;;;;4797808;28;20725;-76
2021/06/27 10:49:03;;;;;;;9.18;1.33;;;48.30;1.00;;;;;;4799642;28;20785;-74
2021/06/27 10:52:00;;;;;;;17.95;2.40;;;49.00;99.90;;;;;;4780902;29;20733;-84
2021/06/27 10:54:23;;;;;;;16.65;2.30;;;;;;;;;;4780947;28;20256;-83
2021/06/27 10:56:59;;;;;;;9.07;1.35;;;49.60;99.90;;;;;;4784579;29;20184;-84
2021/06/27 10:59:55;;;;;;;18.42;2.47;;;49.30;99.90;;;;;;4786802;28;20211;-84
2021/06/27 11:02:20;;;;;;;11.15;1.65;;;49.60;1.00;;;;;;4791683;28;20224;-75
2021/06/27 11:04:43;;;;;;;9.63;1.42;;;48.60;1.00;;;;;;4796787;28;20550;-80
2021/06/27 11:07:07;;;;;;;8.82;1.30;;;48.10;1.00;;;;;;4802840;28;20191;-83
2021/06/27 11:09:30;;;;;;;5.32;0.90;;;;;;;;;;4802548;28;20245;-73
2021/06/27 11:11:54;;;;;;;7.03;1.10;;;45.20;1.00;;;;;;4802383;28;20902;-74
2021/06/27 11:14:17;;;;;;;17.60;2.47;;;43.30;99.90;;;;;;4802159;28;20572;-73
2021/06/27 11:17:01;;;;;;;9.27;1.35;;;41.50;1.00;;;;;;4802897;28;20538;-73
2021/06/27 11:19:28;;;;;;;22.60;2.88;;;40.00;99.90;;;;;;4801663;28;20254;-74
2021/06/27 11:21:50;;;;;;;7.35;1.02;;;;;;;;;;4802397;28;20212;-73
2021/06/27 11:24:14;;;;;;;16.73;2.28;;;42.40;99.90;;;;;;4802366;28;20192;-73
2021/06/27 11:27:07;;;;;;;10.13;1.45;;;43.80;99.90;;;;;;4800703;28;20251;-73
2021/06/27 11:29:42;;;;;;;9.05;1.30;;;44.90;1.00;;;;;;4802310;28;20183;-73
2021/06/27 11:32:43;;;;;;;11.27;1.65;;;46.80;99.90;;;;;;4802477;28;20547;-73
2021/06/27 11:35:08;;;;;;;11.57;1.65;;;47.70;1.00;;;;;;4801581;28;20213;-73
2021/06/27 11:37:42;;;;;;;11.02;1.58;;;47.70;1.00;;;;;;4802586;28;20266;-73
2021/06/27 11:40:07;;;;;;;9.27;1.40;;;48.70;1.00;;;;;;4802163;28;20191;-76
2021/06/27 11:42:49;;;;;;;9.65;1.42;;;49.80;99.90;;;;;;4802198;28;20243;-73
2021/06/27 11:45:49;;;;;;;18.08;2.47;;;49.80;99.90;;;;;;4801705;28;20708;-76
2021/06/27 11:48:12;;;;;;;15.98;2.25;;;50.30;1.00;;;;;;4801906;28;20219;-75
2021/06/27 11:50:36;;;;;;;11.65;1.73;;;50.40;1.00;;;;;;4802078;28;20199;-74
2021/06/27 11:53:01;;;;;;;8.80;1.40;;;50.40;99.90;;;;;;4801828;28;20273;-74
2021/06/27 11:55:26;;;;;;;22.10;3.13;;;51.00;99.90;;;;;;4800953;28;20215;-73
2021/06/27 11:57:49;;;;;;;8.13;1.40;;;;;;;;;;4800981;28;20199;-74
2021/06/27 12:00:13;;;;;;;17.98;2.63;;;51.10;99.90;;;;;;4801441;28;20653;-73
2021/06/27 12:02:37;;;;;;;14.75;3.10;;;;;;;;;;4798932;28;20581;-77
2021/06/27 12:05:01;;;;;;;32.25;29.65;;;50.30;99.90;;;;;;4801462;28;20728;-75
2021/06/27 12:07:34;;;;;;;31.08;7.53;;;50.30;1.00;;;;;;4800407;28;20255;-74
2021/06/27 12:09:58;;;;;;;9.70;2.13;;;;;;;;;;4815652;28;20265;-73
2021/06/27 12:12:38;;;;;;;20.58;6.10;;;51.00;99.90;;;;;;4801428;28;20268;-73
2021/06/27 12:15:01;;;;;;;13.50;7.72;;;;;;;;;;4801842;28;20207;-77
2021/06/27 12:17:24;;;;;;;20.48;4.25;;;50.20;1.00;;;;;;4800952;28;20592;-74
2021/06/27 12:19:51;;;;;;;11.45;1.98;;;51.10;99.90;;;;;;4801489;28;20453;-77
2021/06/27 12:22:14;;;;;;;18.92;2.72;;;;;;;;;;4801505;28;20254;-73
2021/06/27 12:24:37;;;;;;;7.95;1.40;;;51.20;1.00;;;;;;4801200;28;20195;-73
2021/06/27 12:27:10;;;;;;;9.27;1.63;;;52.30;99.90;;;;;;4801417;28;20720;-73
2021/06/27 12:29:34;;;;;;;8.35;1.40;;;50.30;1.00;;;;;;4801489;28;20687;-72
2021/06/27 12:31:57;;;;;;;14.23;2.25;;;;;;;;;;4800688;28;20241;-73
2021/06/27 12:34:20;;;;;;;21.20;2.97;;;;;;;;;;4800296;28;20214;-73
2021/06/27 12:36:47;;;;;;;9.48;1.40;;;44.70;99.90;;;;;;4801180;28;20286;-74
2021/06/27 12:39:16;;;;;;;7.53;1.13;;;42.80;99.90;;;;;;4800900;28;20922;-73
2021/06/27 12:41:39;;;;;;;9.50;1.42;;;40.60;1.00;;;;;;4800835;28;20275;-74
2021/06/27 12:44:03;;;;;;;10.25;1.48;;;39.60;1.00;;;;;;4800717;28;20196;-73
2021/06/27 12:46:29;;;;;;;19.75;2.58;;;38.30;1.00;;;;;;4800813;28;20724;-72
2021/06/27 12:49:15;;;;;;;6.38;0.90;;;38.40;1.00;;;;;;4800975;28;20187;-78
2021/06/27 12:51:40;;;;;;;10.25;1.42;;;39.00;1.00;;;;;;4801294;28;20179;-76
2021/06/27 12:54:24;;;;;;;14.50;2.03;;;40.60;99.90;;;;;;4800546;28;20661;-76
2021/06/27 12:56:59;;;;;;;12.60;1.67;;;42.50;99.90;;;;;;4800404;28;20219;-74
2021/06/27 12:59:23;;;;;;;21.88;2.88;;;44.10;99.90;;;;;;4800457;28;20732;-74
2021/06/27 13:02:05;;;;;;;10.52;1.50;;;45.70;99.90;;;;;;4791634;28;20236;-73
2021/06/27 13:04:29;;;;;;;10.80;1.48;;;46.30;99.90;;;;;;4786721;28;20584;-77
2021/06/27 13:06:56;;;;;;;6.22;1.00;;;44.90;99.90;;;;;;4799713;28;20219;-74
2021/06/27 13:09:19;;;;;;;28.15;3.72;;;43.70;1.00;;;;;;4782258;28;20191;-74
2021/06/27 13:12:09;;;;;;;8.50;1.23;;;43.00;99.90;;;;;;4800793;28;20188;-72